createdAt,value
2019-04-25T00:01:07.846Z,100142.00
2019-04-25T00:03:39.040Z,100141.00
2019-04-25T00:06:09.042Z,100149.00
2019-04-25T00:08:38.826Z,100151.00
2019-04-25T00:11:08.474Z,100148.00
2019-04-25T00:13:38.104Z,100145.00
2019-04-25T00:16:08.200Z,100144.00
2019-04-25T00:18:38.605Z,100143.00
2019-04-25T00:21:15.738Z,100147.00
2019-04-25T00:23:47.122Z,100157.00
2019-04-25T00:26:33.268Z,100146.00
2019-04-25T00:29:03.981Z,100147.00
2019-04-25T00:31:33.585Z,100149.00
2019-04-25T00:34:03.049Z,100155.00
2019-04-25T00:36:32.503Z,100149.00
2019-04-25T00:39:02.128Z,100144.00
2019-04-25T00:41:32.038Z,100141.00
2019-04-25T00:44:02.883Z,100149.00
2019-04-25T00:46:32.390Z,100150.00
2019-04-25T00:49:02.535Z,100152.00
2019-04-25T00:51:32.052Z,100153.00
2019-04-25T00:54:02.405Z,100140.00
2019-04-25T00:56:32.237Z,100138.00
2019-04-25T00:59:03.328Z,100135.00
2019-04-25T01:01:51.893Z,100134.00
2019-04-25T01:04:24.019Z,100137.00
2019-04-25T01:06:53.982Z,100138.00
2019-04-25T01:09:25.296Z,100135.00
2019-04-25T01:11:54.759Z,100130.00
2019-04-25T01:14:24.233Z,100152.00
2019-04-25T01:16:54.910Z,100142.00
2019-04-25T01:19:24.544Z,100159.00
2019-04-25T01:21:54.955Z,100159.00
2019-04-25T01:24:25.384Z,100157.00
2019-04-25T01:26:55.868Z,100167.00
2019-04-25T01:29:25.491Z,100165.00
2019-04-25T01:31:55.283Z,100171.00
2019-04-25T01:34:26.722Z,100167.00
2019-04-25T01:37:04.161Z,100163.00
2019-04-25T01:39:41.447Z,100147.00
2019-04-25T01:42:15.450Z,100146.00
2019-04-25T01:44:47.934Z,100151.00
2019-04-25T01:47:17.882Z,100151.00
2019-04-25T01:49:48.758Z,100134.00
2019-04-25T01:52:18.428Z,100128.00
2019-04-25T01:54:49.165Z,100118.00
2019-04-25T01:57:18.839Z,100122.00
2019-04-25T01:59:49.784Z,100124.00
2019-04-25T02:02:21.149Z,100138.00
2019-04-25T02:04:51.431Z,100131.00
2019-04-25T02:07:21.079Z,100141.00
2019-04-25T02:09:50.938Z,100131.00
2019-04-25T02:12:23.575Z,100130.00
2019-04-25T02:14:54.789Z,100145.00
2019-04-25T02:17:24.970Z,100150.00
2019-04-25T02:19:55.473Z,100148.00
2019-04-25T02:22:25.701Z,100150.00
2019-04-25T02:24:56.257Z,100151.00
2019-04-25T02:27:26.466Z,100167.00
2019-04-25T02:29:56.360Z,100171.00
2019-04-25T02:32:26.682Z,100173.00
2019-04-25T02:35:00.519Z,100170.00
2019-04-25T02:37:27.450Z,100169.00
2019-04-25T02:39:58.864Z,100175.00
2019-04-25T02:42:28.122Z,100169.00
2019-04-25T02:45:04.165Z,100163.00
2019-04-25T02:50:25.030Z,100154.00
2019-04-25T02:52:57.437Z,100161.00
2019-04-25T02:55:31.705Z,100170.00
2019-04-25T02:58:00.380Z,100168.00
2019-04-25T03:00:49.235Z,100167.00
2019-04-25T03:03:03.371Z,100168.00
2019-04-25T03:05:35.461Z,100163.00
2019-04-25T03:08:07.996Z,100156.00
2019-04-25T03:10:35.420Z,100163.00
2019-04-25T03:13:10.290Z,100148.00
2019-04-25T03:15:36.541Z,100151.00
2019-04-25T03:18:11.049Z,100158.00
2019-04-25T03:20:39.446Z,100157.00
2019-04-25T03:23:14.507Z,100173.00
2019-04-25T03:25:44.299Z,100156.00
2019-04-25T03:28:15.521Z,100162.00
2019-04-25T03:30:45.314Z,100163.00
2019-04-25T03:33:19.327Z,100150.00
2019-04-25T03:35:45.985Z,100163.00
2019-04-25T03:38:15.435Z,100160.00
2019-04-25T03:40:44.924Z,100147.00
2019-04-25T03:43:15.029Z,100147.00
2019-04-25T03:45:45.295Z,100154.00
2019-04-25T03:48:15.033Z,100160.00
2019-04-25T03:50:44.517Z,100164.00
2019-04-25T03:53:14.067Z,100151.00
2019-04-25T03:55:44.326Z,100154.00
2019-04-25T03:58:14.663Z,100147.00
2019-04-25T04:00:44.874Z,100162.00
2019-04-25T04:03:15.228Z,100173.00
2019-04-25T04:05:44.856Z,100169.00
2019-04-25T04:08:15.739Z,100161.00
2019-04-25T04:10:45.353Z,100172.00
2019-04-25T04:13:15.839Z,100181.00
2019-04-25T04:15:45.531Z,100185.00
2019-04-25T04:18:25.425Z,100198.00
2019-04-25T04:21:13.302Z,100183.00
2019-04-25T04:24:03.998Z,100181.00
2019-04-25T04:26:33.667Z,100171.00
2019-04-25T04:29:04.672Z,100164.00
2019-04-25T04:31:34.284Z,100156.00
2019-04-25T04:34:03.873Z,100161.00
2019-04-25T04:36:33.875Z,100172.00
2019-04-25T04:39:03.999Z,100160.00
2019-04-25T04:41:33.885Z,100172.00
2019-04-25T04:44:04.149Z,100166.00
2019-04-25T04:46:34.127Z,100173.00
2019-04-25T04:49:04.011Z,100174.00
2019-04-25T04:51:33.730Z,100192.00
2019-04-25T04:54:03.497Z,100187.00
2019-04-25T04:56:34.222Z,100181.00
2019-04-25T04:59:03.842Z,100177.00
2019-04-25T05:01:34.986Z,100180.00
2019-04-25T05:04:09.109Z,100164.00
2019-04-25T05:06:49.066Z,100167.00
2019-04-25T05:09:20.142Z,100169.00
2019-04-25T05:11:49.585Z,100174.00
2019-04-25T05:14:19.537Z,100164.00
2019-04-25T05:16:49.609Z,100164.00
2019-04-25T05:19:19.928Z,100162.00
2019-04-25T05:21:49.456Z,100159.00
2019-04-25T05:24:18.954Z,100162.00
2019-04-25T05:26:48.413Z,100158.00
2019-04-25T05:29:21.715Z,100150.00
2019-04-25T05:31:50.717Z,100154.00
2019-04-25T05:34:20.374Z,100152.00
2019-04-25T05:36:49.875Z,100150.00
2019-04-25T05:39:20.297Z,100167.00
2019-04-25T05:41:59.866Z,100168.00
2019-04-25T05:44:29.409Z,100158.00
2019-04-25T05:46:58.892Z,100182.00
2019-04-25T05:49:28.532Z,100180.00
2019-04-25T05:51:58.027Z,100194.00
2019-04-25T05:54:27.585Z,100189.00
2019-04-25T05:56:57.158Z,100191.00
2019-04-25T05:59:26.950Z,100192.00
2019-04-25T06:01:56.667Z,100197.00
2019-04-25T06:04:26.207Z,100190.00
2019-04-25T06:06:55.665Z,100199.00
2019-04-25T06:09:38.917Z,100209.00
2019-04-25T06:12:25.888Z,100210.00
2019-04-25T06:14:55.513Z,100221.00
2019-04-25T06:17:26.610Z,100230.00
2019-04-25T06:19:57.566Z,100228.00
2019-04-25T06:22:28.724Z,100222.00
2019-04-25T06:24:59.875Z,100223.00
2019-04-25T06:27:35.188Z,100215.00
2019-04-25T06:30:09.336Z,100208.00
2019-04-25T06:32:38.832Z,100214.00
2019-04-25T06:35:09.039Z,100213.00
2019-04-25T06:37:38.511Z,100216.00
2019-04-25T06:40:09.375Z,100218.00
2019-04-25T06:42:39.254Z,100226.00
2019-04-25T06:45:31.062Z,100221.00
2019-04-25T06:48:04.926Z,100215.00
2019-04-25T06:50:35.418Z,100217.00
2019-04-25T06:53:05.853Z,100229.00
2019-04-25T06:55:35.252Z,100235.00
2019-04-25T06:58:12.106Z,100237.00
2019-04-25T07:00:41.170Z,100256.00
2019-04-25T07:03:07.320Z,100255.00
2019-04-25T07:05:40.431Z,100275.00
2019-04-25T07:08:08.238Z,100276.00
2019-04-25T07:10:37.707Z,100258.00
2019-04-25T07:13:07.286Z,100270.00
2019-04-25T07:15:36.929Z,100264.00
2019-04-25T07:18:06.470Z,100252.00
2019-04-25T07:20:35.910Z,100245.00
2019-04-25T07:23:05.981Z,100244.00
2019-04-25T07:25:37.166Z,100237.00
2019-04-25T07:28:22.235Z,100246.00
2019-04-25T07:30:52.709Z,100242.00
2019-04-25T07:33:29.816Z,100240.00
2019-04-25T07:35:59.314Z,100236.00
2019-04-25T07:38:29.098Z,100220.00
2019-04-25T07:40:58.555Z,100222.00
2019-04-25T07:43:28.061Z,100215.00
2019-04-25T07:45:57.670Z,100230.00
2019-04-25T07:48:28.037Z,100246.00
2019-04-25T07:50:57.712Z,100270.00
2019-04-25T07:53:29.313Z,100267.00
2019-04-25T07:55:58.417Z,100273.00
2019-04-25T07:58:44.931Z,100275.00
2019-04-25T08:01:03.729Z,100288.00
2019-04-25T08:03:34.380Z,100298.00
2019-04-25T08:06:05.345Z,100282.00
2019-04-25T08:08:35.008Z,100284.00
2019-04-25T08:11:09.259Z,100279.00
2019-04-25T08:13:40.487Z,100279.00
2019-04-25T08:16:34.776Z,100288.00
2019-04-25T08:19:06.419Z,100288.00
2019-04-25T08:21:36.655Z,100291.00
2019-04-25T08:24:06.375Z,100305.00
2019-04-25T08:26:36.425Z,100288.00
2019-04-25T08:29:07.126Z,100284.00
2019-04-25T08:31:37.700Z,100283.00
2019-04-25T08:34:07.566Z,100278.00
2019-04-25T08:36:38.622Z,100286.00
2019-04-25T08:39:10.001Z,100283.00
2019-04-25T08:41:39.470Z,100288.00
2019-04-25T08:44:09.017Z,100272.00
2019-04-25T08:46:39.460Z,100267.00
2019-04-25T08:49:10.715Z,100277.00
2019-04-25T08:51:42.098Z,100280.00
2019-04-25T08:54:13.573Z,100286.00
2019-04-25T08:56:43.995Z,100278.00
2019-04-25T08:59:36.213Z,100278.00
2019-04-25T09:02:07.214Z,100279.00
2019-04-25T09:04:41.520Z,100279.00
2019-04-25T09:07:11.201Z,100274.00
2019-04-25T09:09:41.134Z,100281.00
2019-04-25T09:12:10.910Z,100277.00
2019-04-25T09:14:41.048Z,100291.00
2019-04-25T09:17:10.540Z,100290.00
2019-04-25T09:19:40.042Z,100298.00
2019-04-25T09:22:09.525Z,100302.00
2019-04-25T09:24:40.085Z,100298.00
2019-04-25T09:27:09.741Z,100292.00
2019-04-25T09:29:39.214Z,100300.00
2019-04-25T09:32:08.747Z,100303.00
2019-04-25T09:34:38.249Z,100297.00
2019-04-25T09:37:07.842Z,100286.00
2019-04-25T09:39:45.475Z,100283.00
2019-04-25T09:42:15.212Z,100280.00
2019-04-25T09:44:46.849Z,100273.00
2019-04-25T09:47:16.432Z,100265.00
2019-04-25T09:49:48.294Z,100267.00
2019-04-25T09:52:19.442Z,100268.00
2019-04-25T09:54:50.625Z,100265.00
2019-04-25T09:57:30.245Z,100258.00
2019-04-25T09:59:59.711Z,100259.00
2019-04-25T10:02:29.447Z,100257.00
2019-04-25T10:04:58.989Z,100261.00
2019-04-25T10:07:28.539Z,100259.00
2019-04-25T10:09:58.041Z,100260.00
2019-04-25T10:12:27.498Z,100253.00
2019-04-25T10:15:19.648Z,100237.00
2019-04-25T10:17:49.121Z,100243.00
2019-04-25T10:20:19.897Z,100236.00
2019-04-25T10:22:49.585Z,100238.00
2019-04-25T10:25:19.613Z,100230.00
2019-04-25T10:27:49.399Z,100235.00
2019-04-25T10:30:23.392Z,100222.00
2019-04-25T10:32:51.375Z,100226.00
2019-04-25T10:35:20.920Z,100231.00
2019-04-25T10:37:50.470Z,100231.00
2019-04-25T10:40:20.718Z,100227.00
2019-04-25T10:42:50.699Z,100244.00
2019-04-25T10:45:23.553Z,100231.00
2019-04-25T10:47:51.593Z,100231.00
2019-04-25T10:50:21.165Z,100244.00
2019-04-25T10:52:50.583Z,100236.00
2019-04-25T10:55:20.035Z,100238.00
2019-04-25T10:57:49.602Z,100231.00
2019-04-25T11:00:34.465Z,100247.00
2019-04-25T11:03:09.813Z,100247.00
2019-04-25T11:05:39.369Z,100255.00
2019-04-25T11:08:08.890Z,100245.00
2019-04-25T11:10:38.402Z,100258.00
2019-04-25T11:13:07.879Z,100243.00
2019-04-25T11:15:38.162Z,100246.00
2019-04-25T11:18:07.706Z,100241.00
2019-04-25T11:20:37.977Z,100242.00
2019-04-25T11:23:07.524Z,100241.00
2019-04-25T11:25:37.092Z,100245.00
2019-04-25T11:28:11.041Z,100233.00
2019-04-25T11:30:45.218Z,100246.00
2019-04-25T11:33:14.316Z,100237.00
2019-04-25T11:35:46.556Z,100246.00
2019-04-25T11:38:17.071Z,100246.00
2019-04-25T11:40:50.210Z,100244.00
2019-04-25T11:43:19.577Z,100244.00
2019-04-25T11:45:49.283Z,100248.00
2019-04-25T11:48:19.056Z,100234.00
2019-04-25T11:50:51.205Z,100217.00
2019-04-25T11:53:20.205Z,100193.00
2019-04-25T11:55:51.325Z,100197.00
2019-04-25T11:58:20.967Z,100186.00
2019-04-25T12:00:50.953Z,100190.00
2019-04-25T12:03:20.594Z,100183.00
2019-04-25T12:05:50.966Z,100182.00
2019-04-25T12:08:20.727Z,100176.00
2019-04-25T12:10:50.185Z,100186.00
2019-04-25T12:13:19.707Z,100176.00
2019-04-25T12:15:49.832Z,100174.00
2019-04-25T12:18:19.382Z,100158.00
2019-04-25T12:20:48.837Z,100163.00
2019-04-25T12:23:18.281Z,100162.00
2019-04-25T12:25:47.756Z,100178.00
2019-04-25T12:28:17.212Z,100178.00
2019-04-25T12:30:47.641Z,100182.00
2019-04-25T12:33:21.125Z,100194.00
2019-04-25T12:35:48.457Z,100186.00
2019-04-25T12:38:20.328Z,100192.00
2019-04-25T12:40:50.055Z,100205.00
2019-04-25T12:43:21.250Z,100214.00
2019-04-25T12:45:52.893Z,100200.00
2019-04-25T12:48:23.469Z,100204.00
2019-04-25T12:50:54.258Z,100200.00
2019-04-25T12:53:24.407Z,100225.00
2019-04-25T12:55:54.936Z,100211.00
2019-04-25T12:58:24.592Z,100214.00
2019-04-25T13:00:58.329Z,100226.00
2019-04-25T13:03:26.255Z,100223.00
2019-04-25T13:05:56.343Z,100235.00
2019-04-25T13:08:25.796Z,100228.00
2019-04-25T13:11:07.331Z,100227.00
2019-04-25T13:13:26.539Z,100230.00
2019-04-25T13:15:56.159Z,100230.00
2019-04-25T13:18:25.635Z,100228.00
2019-04-25T13:20:57.191Z,100224.00
2019-04-25T13:23:26.566Z,100236.00
2019-04-25T13:25:57.264Z,100242.00
2019-04-25T13:28:47.043Z,100235.00
2019-04-25T13:31:36.467Z,100228.00
2019-04-25T13:34:07.791Z,100240.00
2019-04-25T13:36:37.250Z,100248.00
2019-04-25T13:39:10.049Z,100246.00
2019-04-25T13:41:39.607Z,100236.00
2019-04-25T13:44:09.283Z,100241.00
2019-04-25T13:46:38.898Z,100239.00
2019-04-25T13:49:08.427Z,100231.00
2019-04-25T13:51:37.845Z,100239.00
2019-04-25T13:54:07.426Z,100241.00
2019-04-25T13:56:40.386Z,100245.00
2019-04-25T13:59:08.286Z,100245.00
2019-04-25T14:01:37.791Z,100235.00
2019-04-25T14:04:08.602Z,100253.00
2019-04-25T14:06:38.083Z,100239.00
2019-04-25T14:09:09.604Z,100234.00
2019-04-25T14:11:39.140Z,100227.00
2019-04-25T14:14:08.674Z,100236.00
2019-04-25T14:16:39.823Z,100229.00
2019-04-25T14:19:17.182Z,100230.00
2019-04-25T14:21:47.534Z,100234.00
2019-04-25T14:24:20.567Z,100240.00
2019-04-25T14:26:48.264Z,100221.00
2019-04-25T14:29:17.787Z,100225.00
2019-04-25T14:31:48.574Z,100238.00
2019-04-25T14:34:18.322Z,100251.00
2019-04-25T14:36:47.805Z,100262.00
2019-04-25T14:39:18.187Z,100269.00
2019-04-25T14:41:47.916Z,100281.00
2019-04-25T14:44:17.552Z,100288.00
2019-04-25T14:46:47.374Z,100292.00
2019-04-25T14:49:16.840Z,100325.00
2019-04-25T14:51:46.368Z,100335.00
2019-04-25T14:54:17.509Z,100335.00
2019-04-25T14:56:51.384Z,100339.00
2019-04-25T14:59:22.254Z,100332.00
2019-04-25T15:01:52.257Z,100333.00
2019-04-25T15:04:24.596Z,100319.00
2019-04-25T15:06:54.100Z,100324.00
2019-04-25T15:09:24.582Z,100330.00
2019-04-25T15:11:54.215Z,100326.00
2019-04-25T15:14:24.753Z,100318.00
2019-04-25T15:16:54.407Z,100321.00
2019-04-25T15:19:24.142Z,100344.00
2019-04-25T15:21:53.835Z,100355.00
2019-04-25T15:24:23.900Z,100353.00
2019-04-25T15:26:53.758Z,100353.00
2019-04-25T15:29:23.349Z,100336.00
2019-04-25T15:31:55.992Z,100323.00
2019-04-25T15:34:26.031Z,100313.00
2019-04-25T15:37:02.972Z,100317.00
2019-04-25T15:39:35.256Z,100317.00
2019-04-25T15:42:22.716Z,100313.00
2019-04-25T15:45:10.050Z,100305.00
2019-04-25T15:47:39.561Z,100321.00
2019-04-25T15:50:09.595Z,100314.00
2019-04-25T15:52:39.151Z,100318.00
2019-04-25T15:55:08.834Z,100313.00
2019-04-25T15:57:38.436Z,100311.00
2019-04-25T16:00:09.739Z,100326.00
2019-04-25T16:02:39.204Z,100302.00
2019-04-25T16:05:09.028Z,100311.00
2019-04-25T16:07:38.540Z,100302.00
2019-04-25T16:10:08.318Z,100302.00
2019-04-25T16:12:39.629Z,100295.00
2019-04-25T16:15:10.021Z,100300.00
2019-04-25T16:17:40.001Z,100296.00
2019-04-25T16:20:09.949Z,100302.00
2019-04-25T16:22:39.517Z,100284.00
2019-04-25T16:25:10.134Z,100299.00
2019-04-25T16:27:39.590Z,100300.00
2019-04-25T16:30:09.911Z,100311.00
2019-04-25T16:32:39.403Z,100332.00
2019-04-25T16:35:09.650Z,100337.00
2019-04-25T16:37:39.120Z,100350.00
2019-04-25T16:40:10.015Z,100358.00
2019-04-25T16:42:41.765Z,100362.00
2019-04-25T16:45:12.299Z,100358.00
2019-04-25T16:47:41.906Z,100364.00
2019-04-25T16:50:12.303Z,100380.00
2019-04-25T16:52:42.635Z,100390.00
2019-04-25T16:55:12.564Z,100400.00
2019-04-25T16:57:42.161Z,100402.00
2019-04-25T17:00:30.855Z,100393.00
2019-04-25T17:03:01.058Z,100394.00
2019-04-25T17:05:30.942Z,100406.00
2019-04-25T17:08:00.517Z,100403.00
2019-04-25T17:10:31.415Z,100404.00
2019-04-25T17:13:01.019Z,100410.00
2019-04-25T17:15:38.400Z,100419.00
2019-04-25T17:18:18.653Z,100429.00
2019-04-25T17:21:01.907Z,100415.00
2019-04-25T17:23:32.285Z,100406.00
2019-04-25T17:26:02.181Z,100409.00
2019-04-25T17:28:33.428Z,100404.00
2019-04-25T17:31:13.595Z,100401.00
2019-04-25T17:33:47.608Z,100406.00
2019-04-25T17:36:24.468Z,100399.00
2019-04-25T17:38:58.448Z,100396.00
2019-04-25T17:41:27.893Z,100400.00
2019-04-25T17:43:57.438Z,100407.00
2019-04-25T17:46:26.916Z,100397.00
2019-04-25T17:48:56.405Z,100390.00
2019-04-25T17:51:26.045Z,100403.00
2019-04-25T17:53:55.542Z,100404.00
2019-04-25T17:56:25.022Z,100399.00
2019-04-25T17:58:54.463Z,100408.00
2019-04-25T18:01:26.634Z,100409.00
2019-04-25T18:03:56.188Z,100399.00
2019-04-25T18:06:25.662Z,100411.00
2019-04-25T18:08:55.137Z,100403.00
2019-04-25T18:11:24.611Z,100411.00
2019-04-25T18:13:54.072Z,100425.00
2019-04-25T18:16:31.048Z,100433.00
2019-04-25T18:19:11.158Z,100417.00
2019-04-25T18:21:40.751Z,100433.00
2019-04-25T18:24:17.925Z,100424.00
2019-04-25T18:26:58.438Z,100429.00
2019-04-25T18:29:27.996Z,100429.00
2019-04-25T18:31:57.443Z,100446.00
2019-04-25T18:34:28.570Z,100429.00
2019-04-25T18:37:15.744Z,100423.00
2019-04-25T18:39:49.397Z,100446.00
2019-04-25T18:42:29.426Z,100471.00
2019-04-25T18:44:58.893Z,100484.00
2019-04-25T18:47:28.368Z,100492.00
2019-04-25T18:49:57.855Z,100480.00
2019-04-25T18:52:41.023Z,100475.00
2019-04-25T18:55:27.233Z,100452.00
2019-04-25T18:58:01.118Z,100456.00
2019-04-25T19:00:41.650Z,100475.00
2019-04-25T19:03:23.434Z,100488.00
2019-04-25T19:05:54.590Z,100510.00
2019-04-25T19:08:24.091Z,100495.00
2019-04-25T19:10:53.622Z,100503.00
2019-04-25T19:13:23.233Z,100503.00
2019-04-25T19:15:52.824Z,100491.00
2019-04-25T19:18:22.367Z,100498.00
2019-04-25T19:20:52.375Z,100512.00
2019-04-25T19:23:22.008Z,100506.00
2019-04-25T19:25:52.157Z,100508.00
2019-04-25T19:28:21.717Z,100512.00
2019-04-25T19:30:51.484Z,100519.00
2019-04-25T19:33:34.705Z,100516.00
2019-04-25T19:35:53.897Z,100521.00
2019-04-25T19:38:23.376Z,100514.00
2019-04-25T19:41:03.416Z,100523.00
2019-04-25T19:43:34.515Z,100514.00
2019-04-25T19:46:04.101Z,100516.00
2019-04-25T19:48:33.641Z,100522.00
2019-04-25T19:51:03.237Z,100527.00
2019-04-25T19:53:32.744Z,100522.00
2019-04-25T19:56:02.237Z,100525.00
2019-04-25T19:58:31.712Z,100532.00
2019-04-25T20:01:01.173Z,100554.00
2019-04-25T20:03:32.302Z,100550.00
2019-04-25T20:06:03.421Z,100551.00
2019-04-25T20:08:34.611Z,100560.00
2019-04-25T20:11:08.841Z,100571.00
2019-04-25T20:13:38.335Z,100574.00
2019-04-25T20:16:07.873Z,100568.00
2019-04-25T20:18:37.329Z,100548.00
2019-04-25T20:21:06.847Z,100531.00
2019-04-25T20:23:36.350Z,100544.00
2019-04-25T20:26:05.902Z,100571.00
2019-04-25T20:28:35.370Z,100586.00
2019-04-25T20:31:04.957Z,100593.00
2019-04-25T20:33:34.414Z,100591.00
2019-04-25T20:36:03.919Z,100579.00
2019-04-25T20:38:33.385Z,100568.00
2019-04-25T20:41:03.041Z,100552.00
2019-04-25T20:43:32.741Z,100543.00
2019-04-25T20:46:02.213Z,100549.00
2019-04-25T20:48:31.717Z,100555.00
2019-04-25T20:51:01.223Z,100545.00
2019-04-25T20:53:30.751Z,100554.00
2019-04-25T20:56:00.257Z,100573.00
2019-04-25T20:58:29.717Z,100569.00
2019-04-25T21:01:00.852Z,100574.00
2019-04-25T21:03:30.315Z,100569.00
2019-04-25T21:06:01.769Z,100577.00
2019-04-25T21:08:31.453Z,100583.00
2019-04-25T21:11:00.912Z,100562.00
2019-04-25T21:13:34.712Z,100552.00
2019-04-25T21:16:08.394Z,100556.00
2019-04-25T21:18:42.170Z,100580.00
2019-04-25T21:21:11.690Z,100563.00
2019-04-25T21:23:41.139Z,100556.00
2019-04-25T21:26:10.587Z,100548.00
2019-04-25T21:28:40.103Z,100586.00
2019-04-25T21:31:09.584Z,100582.00
2019-04-25T21:33:39.077Z,100565.00
2019-04-25T21:36:08.601Z,100556.00
2019-04-25T21:38:38.238Z,100560.00
2019-04-25T21:41:09.416Z,100558.00
2019-04-25T21:43:43.405Z,100538.00
2019-04-25T21:46:13.367Z,100533.00
2019-04-25T21:48:43.164Z,100544.00
2019-04-25T21:51:30.321Z,100542.00
2019-04-25T21:54:02.543Z,100540.00
2019-04-25T21:56:33.156Z,100547.00
2019-04-25T21:59:02.653Z,100555.00
2019-04-25T22:01:36.644Z,100552.00
2019-04-25T22:04:06.417Z,100543.00
2019-04-25T22:06:36.683Z,100547.00
2019-04-25T22:09:11.473Z,100568.00
2019-04-25T22:11:41.008Z,100610.00
2019-04-25T22:14:11.455Z,100634.00
2019-04-25T22:16:41.341Z,100634.00
2019-04-25T22:19:11.253Z,100607.00
2019-04-25T22:21:40.960Z,100594.00
2019-04-25T22:24:14.626Z,100591.00
2019-04-25T22:26:41.643Z,100613.00
2019-04-25T22:29:11.447Z,100612.00
2019-04-25T22:31:48.643Z,100603.00
2019-04-25T22:34:36.066Z,100572.00
2019-04-25T22:37:06.251Z,100548.00
2019-04-25T22:39:35.715Z,100538.00
2019-04-25T22:42:05.851Z,100546.00
2019-04-25T22:44:35.602Z,100543.00
2019-04-25T22:47:06.328Z,100532.00
2019-04-25T22:49:35.813Z,100548.00
2019-04-25T22:52:06.843Z,100571.00
2019-04-25T22:54:36.560Z,100566.00
2019-04-25T22:57:06.377Z,100550.00
2019-04-25T22:59:36.265Z,100556.00
2019-04-25T23:02:35.711Z,100541.00
2019-04-25T23:05:15.765Z,100565.00
2019-04-25T23:07:42.078Z,100582.00
2019-04-25T23:10:12.363Z,100598.00
2019-04-25T23:12:42.057Z,100575.00
2019-04-25T23:15:12.945Z,100573.00
2019-04-25T23:17:42.529Z,100589.00
2019-04-25T23:20:12.551Z,100599.00
2019-04-25T23:22:42.065Z,100600.00
2019-04-25T23:25:14.195Z,100619.00
2019-04-25T23:27:45.477Z,100616.00
2019-04-25T23:30:16.817Z,100605.00
2019-04-25T23:32:46.243Z,100618.00
2019-04-25T23:35:28.063Z,100607.00
2019-04-25T23:37:46.962Z,100600.00
2019-04-25T23:40:16.477Z,100605.00
2019-04-25T23:42:45.946Z,100601.00
2019-04-25T23:45:16.772Z,100592.00
2019-04-25T23:47:46.269Z,100600.00
2019-04-25T23:50:16.844Z,100610.00
2019-04-25T23:52:46.442Z,100605.00
2019-04-25T23:55:17.067Z,100605.00
2019-04-25T23:57:46.754Z,100603.00
